ePrivacy and GPDR Cookie Consent by Cookie Consent
EmailTwitter


Observations de surface / France / LFBD (07510)

Régions: Québec | Canada | États-Unis | Europe | France | UK | Ailleurs
Station
Affichage
Infos & localisation pour LFBD (07510) | Aide pour décoder les METARs

Observations prises le 2021-04-14 à 10H00 UTC à BORDEAUX/MERIGNA, FR (LFBD)

Température: 12.0 Celsius

Point de rosée: -2.0 Celsius

Humidité relative: 38%

Facteur vent: 10.

Vents: Est à 22 km/h ou 12 noeuds.

Pression au niveau moyen de la mer: 102.40 kilopascals.

Observation METAR:

LFBD 141000Z AUTO 08012KT 050V110 CAVOK 12/M02 Q1024 NOSIG=